Terminal Aerodrome Forecast
Issued by NWS

Current Version | Previous Version | Graphics & Text | Print | Product List | Glossary On
Versions: 1 2 3 4 5 6 7 8 9 10 11 12 13 14 15 16 17 18 19 20 21 22 23 24 25 26 27
917
FTUS41 KRLX 271503 AAA
TAFCKB
TAF AMD
KCKB 271503Z 2715/2812 00000KT P6SM OVC028
     FM271700 22005KT P6SM VCTS OVC035CB
     FM272000 25005KT P6SM VCTS BKN035CB
     FM280300 00000KT P6SM BKN025
     FM280900 00000KT P6SM BKN010=

USA.gov is the U.S. government's official web portal to all federal, state and local government web resources and services.